Time;durP1;ratioP1;P1;durP2;ratioP2;P2;SDS_P1;SDS_P2;PMS_P1;PMS_P2;Temp;Humidity;BMP_temperature;BMP_pressure;BME280_temperature;BME280_humidity;BME280_pressure;Samples;Min_cycle;Max_cycle;Signal;HPM_P1;HPM_P2
2024/04/02 00:01:13;;;;;;;1.20;0.77;;;15.30;54.20;;;;;;5024096;28;20177;-57
2024/04/02 00:03:42;;;;;;;1.70;0.80;;;15.30;54.20;;;;;;5024610;28;20220;-62
2024/04/02 00:06:08;;;;;;;0.67;0.67;;;15.30;54.10;;;;;;5023393;28;20775;-60
2024/04/02 00:08:35;;;;;;;1.07;0.80;;;15.20;54.10;;;;;;5022769;28;20508;-61
2024/04/02 00:11:02;;;;;;;1.50;0.83;;;15.20;54.20;;;;;;5021205;28;20676;-53
2024/04/02 00:13:28;;;;;;;1.03;0.70;;;15.20;54.30;;;;;;5021379;28;20956;-63
2024/04/02 00:15:54;;;;;;;0.90;0.80;;;15.20;54.20;;;;;;5028342;28;20408;-58
2024/04/02 00:18:19;;;;;;;0.93;0.80;;;15.10;54.40;;;;;;5020331;28;20966;-60
2024/04/02 00:20:45;;;;;;;0.70;0.67;;;15.20;54.30;;;;;;5024880;28;20499;-56
2024/04/02 00:23:11;;;;;;;2.83;0.97;;;15.10;54.30;;;;;;5024902;28;20235;-57
2024/04/02 00:25:37;;;;;;;1.47;1.00;;;15.10;54.40;;;;;;5025264;28;20256;-57
2024/04/02 00:28:05;;;;;;;1.70;0.63;;;15.20;54.40;;;;;;5022580;28;20201;-59
2024/04/02 00:30:32;;;;;;;2.30;0.83;;;15.20;54.30;;;;;;5022850;28;20189;-63
2024/04/02 00:32:58;;;;;;;1.10;0.60;;;15.20;54.10;;;;;;5020750;28;20513;-61
2024/04/02 00:35:23;;;;;;;1.07;0.70;;;15.20;54.20;;;;;;5021264;28;20447;-65
2024/04/02 00:37:50;;;;;;;0.70;0.70;;;15.20;54.30;;;;;;5024394;28;20209;-56
2024/04/02 00:40:17;;;;;;;1.53;0.90;;;15.20;54.10;;;;;;5021447;28;20221;-61
2024/04/02 00:42:46;;;;;;;0.70;0.63;;;15.20;54.30;;;;;;5022873;28;20418;-57
2024/04/02 00:45:12;;;;;;;1.00;0.90;;;15.30;54.10;;;;;;5027323;28;20412;-62
2024/04/02 00:47:40;;;;;;;1.20;1.00;;;15.30;54.00;;;;;;5020313;28;20462;-61
2024/04/02 00:50:07;;;;;;;0.70;0.60;;;15.20;53.90;;;;;;5025918;28;20423;-57
2024/04/02 00:52:33;;;;;;;1.50;0.80;;;15.30;53.90;;;;;;5018668;28;20444;-62
2024/04/02 00:54:59;;;;;;;2.60;0.70;;;15.30;53.90;;;;;;5025072;28;20438;-60
2024/04/02 00:57:25;;;;;;;1.80;0.77;;;15.30;53.90;;;;;;5024710;28;20443;-57
2024/04/02 00:59:51;;;;;;;0.97;0.70;;;15.20;54.00;;;;;;5022795;28;20485;-61
2024/04/02 01:02:18;;;;;;;0.90;0.73;;;15.10;54.10;;;;;;5022245;28;20558;-59
2024/04/02 01:04:45;;;;;;;0.70;0.70;;;15.20;54.10;;;;;;5020976;28;20408;-57
2024/04/02 01:07:12;;;;;;;1.80;0.80;;;15.20;54.00;;;;;;5020622;28;20982;-59
2024/04/02 01:09:38;;;;;;;2.83;0.90;;;15.10;54.00;;;;;;5021183;28;20426;-54
2024/04/02 01:12:07;;;;;;;1.73;0.90;;;15.00;54.10;;;;;;5025081;28;20432;-58
2024/04/02 01:14:42;;;;;;;1.07;0.70;;;14.70;54.40;;;;;;5019878;28;20451;-62
2024/04/02 01:17:08;;;;;;;0.80;0.73;;;14.50;55.00;;;;;;5024266;28;20463;-59
2024/04/02 01:19:33;;;;;;;1.17;0.70;;;14.30;55.30;;;;;;5017490;28;20976;-58
2024/04/02 01:21:59;;;;;;;2.00;0.97;;;14.20;55.50;;;;;;5022937;28;20420;-56
2024/04/02 01:24:26;;;;;;;0.80;0.70;;;14.10;55.50;;;;;;5024069;28;20620;-60
2024/04/02 01:26:52;;;;;;;0.80;0.70;;;13.70;56.30;;;;;;5021162;28;20228;-55
2024/04/02 01:29:18;;;;;;;0.87;0.70;;;13.80;57.30;;;;;;5022944;28;20948;-56
2024/04/02 01:31:43;;;;;;;1.50;1.20;;;13.80;56.60;;;;;;5018764;28;20281;-54
2024/04/02 01:34:09;;;;;;;1.37;0.70;;;13.80;56.50;;;;;;5022917;28;20190;-60
2024/04/02 01:36:35;;;;;;;0.80;0.80;;;13.70;56.80;;;;;;5022275;28;20672;-61
2024/04/02 01:39:00;;;;;;;1.67;0.87;;;13.70;57.00;;;;;;5021104;28;20519;-56
2024/04/02 01:41:26;;;;;;;1.23;0.90;;;13.80;56.80;;;;;;5023219;28;20192;-56
2024/04/02 01:43:51;;;;;;;0.73;0.73;;;13.50;56.80;;;;;;5020175;28;20186;-59
2024/04/02 01:46:18;;;;;;;1.27;0.80;;;13.30;57.70;;;;;;5021407;28;20204;-59
2024/04/02 01:48:43;;;;;;;2.30;0.80;;;13.30;57.70;;;;;;5020501;28;20189;-55
2024/04/02 01:51:09;;;;;;;1.03;0.80;;;13.40;57.70;;;;;;5024111;28;20789;-61
2024/04/02 01:53:34;;;;;;;4.80;0.97;;;13.60;57.40;;;;;;5018576;28;20189;-55
2024/04/02 01:56:00;;;;;;;1.10;0.80;;;13.60;57.20;;;;;;5023220;28;20205;-56
2024/04/02 01:58:26;;;;;;;2.67;0.83;;;13.50;57.30;;;;;;5024541;28;20227;-56
2024/04/02 02:00:51;;;;;;;0.90;0.73;;;13.60;57.30;;;;;;5020110;28;20243;-60
2024/04/02 02:03:17;;;;;;;1.27;0.90;;;13.80;56.90;;;;;;5024551;28;20658;-56
2024/04/02 02:05:46;;;;;;;0.70;0.70;;;13.60;57.00;;;;;;5018492;28;20267;-55
2024/04/02 02:08:11;;;;;;;2.73;1.10;;;13.80;56.80;;;;;;5023058;28;20452;-59
2024/04/02 02:10:37;;;;;;;1.47;0.70;;;13.70;56.60;;;;;;5023411;28;20507;-59
2024/04/02 02:13:05;;;;;;;1.00;0.90;;;13.70;56.80;;;;;;5023380;28;20205;-57
2024/04/02 02:15:31;;;;;;;1.17;0.87;;;13.70;56.70;;;;;;5026776;28;20188;-56
2024/04/02 02:17:56;;;;;;;1.30;0.77;;;13.80;56.60;;;;;;5017919;28;20449;-55
2024/04/02 02:20:22;;;;;;;0.60;0.60;;;13.70;56.40;;;;;;5024620;28;20212;-55
2024/04/02 02:22:47;;;;;;;1.10;0.80;;;13.80;56.80;;;;;;5025382;28;20542;-60
2024/04/02 02:25:13;;;;;;;0.80;0.80;;;14.00;56.40;;;;;;5027632;28;20261;-55
2024/04/02 02:27:40;;;;;;;1.23;0.83;;;14.00;56.20;;;;;;5022739;28;20241;-59
2024/04/02 02:30:07;;;;;;;1.97;0.80;;;13.90;56.20;;;;;;5026252;28;20435;-60
2024/04/02 02:32:32;;;;;;;0.90;0.70;;;13.90;56.20;;;;;;5021704;28;20433;-57
2024/04/02 02:34:58;;;;;;;0.60;0.60;;;13.90;56.30;;;;;;5025886;28;20423;-56
2024/04/02 02:37:24;;;;;;;1.23;0.80;;;13.80;56.10;;;;;;5025570;28;20700;-64
2024/04/02 02:39:49;;;;;;;1.00;0.90;;;13.80;56.60;;;;;;5022525;28;20300;-57
2024/04/02 02:42:15;;;;;;;1.47;0.73;;;13.70;56.60;;;;;;5027474;28;20262;-54
2024/04/02 02:44:40;;;;;;;0.70;0.63;;;13.60;57.40;;;;;;5021199;28;20193;-54
2024/04/02 02:47:06;;;;;;;0.80;0.77;;;13.60;56.90;;;;;;5026337;28;20264;-59
2024/04/02 02:49:32;;;;;;;0.90;0.90;;;13.70;56.90;;;;;;5026323;28;20193;-64
2024/04/02 02:51:57;;;;;;;0.80;0.80;;;13.60;57.00;;;;;;5025497;28;20213;-55
2024/04/02 02:54:23;;;;;;;1.03;0.93;;;13.40;57.30;;;;;;5025911;28;20243;-53
2024/04/02 02:56:49;;;;;;;0.83;0.70;;;13.70;57.30;;;;;;5022122;28;20569;-57
2024/04/02 02:59:14;;;;;;;1.37;0.80;;;13.50;57.10;;;;;;5022970;28;20507;-56
2024/04/02 03:01:40;;;;;;;1.37;0.90;;;13.70;57.00;;;;;;5022258;28;20545;-62
2024/04/02 03:04:05;;;;;;;0.80;0.77;;;13.70;56.80;;;;;;5027013;28;20182;-56
2024/04/02 03:06:31;;;;;;;0.60;0.60;;;13.30;57.50;;;;;;5021885;28;20284;-57
2024/04/02 03:08:57;;;;;;;0.97;0.83;;;13.40;57.80;;;;;;5024947;28;20197;-64
2024/04/02 03:11:22;;;;;;;0.90;0.90;;;13.30;57.60;;;;;;5027679;28;20189;-58
2024/04/02 03:13:48;;;;;;;0.70;0.63;;;13.30;57.50;;;;;;5023003;28;20218;-59
2024/04/02 03:16:13;;;;;;;1.03;0.80;;;13.30;57.70;;;;;;5027086;28;20188;-57
2024/04/02 03:18:39;;;;;;;0.80;0.60;;;13.40;57.80;;;;;;5020432;28;20240;-57
2024/04/02 03:21:05;;;;;;;2.40;0.90;;;13.50;57.40;;;;;;5025680;28;20239;-57
2024/04/02 03:23:31;;;;;;;0.93;0.70;;;13.20;57.50;;;;;;5026392;28;20184;-59
2024/04/02 03:26:00;;;;;;;0.60;0.60;;;13.30;57.60;;;;;;5023430;28;20428;-59
2024/04/02 03:28:30;;;;;;;1.33;0.80;;;13.20;57.80;;;;;;5025497;28;20232;-56
2024/04/02 03:31:03;;;;;;;1.43;1.00;;;13.10;58.00;;;;;;5022173;28;20478;-57
2024/04/02 03:33:29;;;;;;;0.90;0.60;;;12.80;58.20;;;;;;5024846;28;20412;-58
2024/04/02 03:36:01;;;;;;;1.23;0.80;;;12.80;58.70;;;;;;5022084;28;20427;-58
2024/04/02 03:38:28;;;;;;;1.00;0.87;;;13.00;58.40;;;;;;5026213;28;20478;-59
2024/04/02 03:40:53;;;;;;;0.90;0.60;;;12.80;59.20;;;;;;5021156;28;20455;-55
2024/04/02 03:43:19;;;;;;;2.67;0.60;;;12.80;58.60;;;;;;5026039;28;20920;-56
2024/04/02 03:45:45;;;;;;;1.53;0.80;;;12.80;58.50;;;;;;5018462;28;20182;-60
2024/04/02 03:48:11;;;;;;;0.70;0.63;;;12.80;58.40;;;;;;5024618;28;20676;-56
2024/04/02 03:50:38;;;;;;;0.60;0.60;;;12.90;58.30;;;;;;5024121;28;20429;-61
2024/04/02 03:53:05;;;;;;;0.90;0.80;;;12.80;58.70;;;;;;5023403;28;20269;-55
2024/04/02 03:55:37;;;;;;;0.93;0.77;;;13.00;58.40;;;;;;5023013;28;20421;-56
2024/04/02 03:58:03;;;;;;;1.10;0.80;;;13.20;57.90;;;;;;5016034;28;20432;-60
2024/04/02 04:00:29;;;;;;;1.00;0.90;;;13.30;57.30;;;;;;5020490;28;20447;-60
2024/04/02 04:02:56;;;;;;;1.07;0.77;;;13.20;57.50;;;;;;5029147;28;20999;-57
2024/04/02 04:05:22;;;;;;;2.50;0.87;;;13.30;57.40;;;;;;5019738;28;20499;-55
2024/04/02 04:07:47;;;;;;;0.80;0.70;;;13.30;57.00;;;;;;5026486;28;20441;-58
2024/04/02 04:10:13;;;;;;;0.70;0.70;;;13.10;57.40;;;;;;5023419;28;20193;-58
2024/04/02 04:12:39;;;;;;;0.97;0.67;;;13.20;57.50;;;;;;5025552;28;20199;-63
2024/04/02 04:15:05;;;;;;;1.00;0.80;;;13.30;57.20;;;;;;5022436;28;20267;-56
2024/04/02 04:17:30;;;;;;;1.67;0.70;;;13.10;56.90;;;;;;5024218;28;21066;-54
2024/04/02 04:19:56;;;;;;;0.97;0.70;;;13.10;57.60;;;;;;5018660;28;20987;-60
2024/04/02 04:22:21;;;;;;;0.70;0.70;;;12.90;57.40;;;;;;5024071;28;20272;-61
2024/04/02 04:24:57;;;;;;;1.37;0.60;;;12.90;57.60;;;;;;5024374;28;20178;-59
2024/04/02 04:27:28;;;;;;;2.53;0.63;;;12.90;57.60;;;;;;5021647;28;20205;-59
2024/04/02 04:29:54;;;;;;;0.83;0.80;;;12.80;58.00;;;;;;5023165;28;20456;-59
2024/04/02 04:32:19;;;;;;;1.10;0.80;;;12.70;58.20;;;;;;5020647;28;20471;-60
2024/04/02 04:34:46;;;;;;;0.70;0.70;;;12.80;58.10;;;;;;5021467;28;20186;-59
2024/04/02 04:37:12;;;;;;;3.50;0.70;;;12.80;57.90;;;;;;5024328;28;20248;-57
2024/04/02 04:39:37;;;;;;;1.03;0.73;;;12.60;58.10;;;;;;5018314;28;20464;-57
2024/04/02 04:42:03;;;;;;;1.53;1.07;;;12.60;58.50;;;;;;5025825;28;20689;-60
2024/04/02 04:44:29;;;;;;;1.40;0.60;;;12.50;58.50;;;;;;5024571;28;20688;-58
2024/04/02 04:46:54;;;;;;;0.73;0.60;;;12.50;58.80;;;;;;5024321;28;20232;-56
2024/04/02 04:49:20;;;;;;;0.90;0.70;;;12.70;58.40;;;;;;5023088;28;20247;-57
2024/04/02 04:51:46;;;;;;;1.87;0.80;;;12.60;58.40;;;;;;5022279;28;20530;-59
2024/04/02 04:54:11;;;;;;;1.10;0.70;;;12.70;58.30;;;;;;5021420;28;20187;-60
2024/04/02 04:56:37;;;;;;;2.13;0.80;;;12.70;58.50;;;;;;5022538;28;20201;-56
2024/04/02 04:59:02;;;;;;;2.50;0.70;;;12.80;58.30;;;;;;5024416;28;20213;-57
2024/04/02 05:01:28;;;;;;;0.90;0.70;;;12.50;58.60;;;;;;5021713;28;20217;-54
2024/04/02 05:03:53;;;;;;;1.37;0.67;;;12.70;58.60;;;;;;5023869;28;20173;-56
2024/04/02 05:06:19;;;;;;;1.10;0.70;;;12.60;58.30;;;;;;5020179;28;20238;-58
2024/04/02 05:08:44;;;;;;;1.70;0.63;;;12.70;58.40;;;;;;5020614;28;20190;-57
2024/04/02 05:11:10;;;;;;;1.10;0.73;;;12.60;58.50;;;;;;5026345;28;20192;-58
2024/04/02 05:13:37;;;;;;;1.67;0.60;;;12.60;58.60;;;;;;5018518;28;20178;-55
2024/04/02 05:16:04;;;;;;;0.80;0.70;;;12.50;58.70;;;;;;5025540;28;20592;-57
2024/04/02 05:18:30;;;;;;;0.50;0.50;;;12.50;58.60;;;;;;5024143;28;20553;-55
2024/04/02 05:20:55;;;;;;;0.90;0.90;;;12.70;58.40;;;;;;5023025;28;20424;-59
2024/04/02 05:23:21;;;;;;;0.90;0.80;;;12.60;58.40;;;;;;5023848;28;20188;-56
2024/04/02 05:25:47;;;;;;;1.23;1.03;;;12.50;58.50;;;;;;5021094;28;20182;-59
2024/04/02 05:28:13;;;;;;;0.73;0.63;;;12.50;58.50;;;;;;5021226;28;20436;-57
2024/04/02 05:30:38;;;;;;;0.67;0.67;;;12.40;58.00;;;;;;5020831;28;20529;-54
2024/04/02 05:33:04;;;;;;;0.70;0.67;;;12.30;58.50;;;;;;5019850;28;20723;-57
2024/04/02 05:35:30;;;;;;;0.50;0.50;;;12.30;58.60;;;;;;5018439;28;20186;-55
2024/04/02 05:37:55;;;;;;;0.90;0.70;;;12.20;58.80;;;;;;5023815;28;20384;-57
2024/04/02 05:40:22;;;;;;;2.47;0.67;;;12.20;59.30;;;;;;5019329;28;20212;-57
2024/04/02 05:42:48;;;;;;;0.60;0.60;;;12.10;58.90;;;;;;5021938;28;20324;-56
2024/04/02 05:45:15;;;;;;;0.70;0.60;;;11.90;58.80;;;;;;5025948;28;20503;-58
2024/04/02 05:47:41;;;;;;;0.70;0.50;;;12.00;59.10;;;;;;5019069;28;20468;-54
2024/04/02 05:50:07;;;;;;;1.00;0.80;;;11.90;59.40;;;;;;5025054;28;21144;-58
2024/04/02 05:52:32;;;;;;;1.87;0.73;;;12.00;59.20;;;;;;5017716;28;20409;-56
2024/04/02 05:54:58;;;;;;;1.33;0.87;;;12.00;59.30;;;;;;5024951;28;20420;-56
2024/04/02 05:57:24;;;;;;;0.60;0.60;;;12.20;59.10;;;;;;5023677;28;20298;-55
2024/04/02 05:59:52;;;;;;;1.10;0.70;;;12.10;59.50;;;;;;5020994;28;20245;-57
2024/04/02 06:02:19;;;;;;;0.80;0.77;;;12.00;59.60;;;;;;5023007;28;20173;-51
2024/04/02 06:04:45;;;;;;;1.10;0.73;;;11.90;59.90;;;;;;5020677;28;20433;-56
2024/04/02 06:07:12;;;;;;;4.07;0.90;;;12.00;60.00;;;;;;5020250;28;20439;-56
2024/04/02 06:09:38;;;;;;;1.27;1.00;;;12.20;59.70;;;;;;5019893;28;20470;-57
2024/04/02 06:12:04;;;;;;;1.23;1.10;;;12.20;59.50;;;;;;5024635;28;20456;-57
2024/04/02 06:14:31;;;;;;;0.83;0.77;;;12.20;59.60;;;;;;5019211;28;20511;-58
2024/04/02 06:16:57;;;;;;;0.80;0.70;;;12.00;60.00;;;;;;5023217;28;20824;-54
2024/04/02 06:19:23;;;;;;;0.80;0.60;;;12.20;60.20;;;;;;5017485;28;20474;-57
2024/04/02 06:21:48;;;;;;;1.33;0.60;;;12.40;59.40;;;;;;5021165;28;20657;-53
2024/04/02 06:24:14;;;;;;;2.00;0.60;;;12.40;59.40;;;;;;5024843;28;20603;-57
2024/04/02 06:26:39;;;;;;;1.47;0.60;;;12.50;59.60;;;;;;5018373;28;20201;-56
2024/04/02 06:29:05;;;;;;;0.70;0.70;;;12.70;59.20;;;;;;5023723;28;20189;-57
2024/04/02 06:31:31;;;;;;;0.70;0.70;;;12.80;58.80;;;;;;5023182;28;20181;-57
2024/04/02 06:33:56;;;;;;;0.73;0.73;;;12.60;58.60;;;;;;5022714;28;20185;-55
2024/04/02 06:36:23;;;;;;;0.70;0.50;;;12.60;59.00;;;;;;5020488;28;20256;-55
2024/04/02 06:38:49;;;;;;;1.37;0.90;;;12.90;58.80;;;;;;5019713;28;20222;-56
2024/04/02 06:41:14;;;;;;;1.07;0.53;;;12.80;58.40;;;;;;5020489;28;20430;-56
2024/04/02 06:43:40;;;;;;;0.77;0.53;;;12.90;58.70;;;;;;5020590;28;20219;-56
2024/04/02 06:46:06;;;;;;;0.90;0.70;;;12.70;59.20;;;;;;5024368;28;20726;-57
2024/04/02 06:48:32;;;;;;;1.23;0.73;;;12.70;60.30;;;;;;5019397;28;20455;-57
2024/04/02 06:51:05;;;;;;;1.13;0.60;;;12.50;62.00;;;;;;5022321;28;20185;-57
2024/04/02 06:53:31;;;;;;;0.70;0.60;;;12.50;62.30;;;;;;5017866;28;20182;-58
2024/04/02 06:55:58;;;;;;;0.93;0.70;;;12.70;63.50;;;;;;5021674;28;20424;-57
2024/04/02 06:58:23;;;;;;;0.80;0.53;;;12.80;62.70;;;;;;5023966;28;20448;-57
2024/04/02 07:00:50;;;;;;;1.17;0.70;;;12.40;62.30;;;;;;5020964;28;20988;-56
2024/04/02 07:03:18;;;;;;;0.90;0.60;;;12.30;62.50;;;;;;5027819;28;20439;-58
2024/04/02 07:05:45;;;;;;;0.87;0.87;;;12.30;62.90;;;;;;5021307;28;20420;-57
2024/04/02 07:08:11;;;;;;;1.33;0.70;;;12.40;62.20;;;;;;5025981;28;20436;-58
2024/04/02 07:10:39;;;;;;;0.70;0.70;;;12.40;62.50;;;;;;5026043;28;20431;-55
2024/04/02 07:13:05;;;;;;;1.10;0.90;;;12.30;62.20;;;;;;5024473;28;20875;-57
2024/04/02 07:15:30;;;;;;;0.63;0.50;;;12.40;62.40;;;;;;5025539;28;20454;-57
2024/04/02 07:17:56;;;;;;;1.10;0.70;;;12.60;61.90;;;;;;5022493;28;20198;-56
2024/04/02 07:20:23;;;;;;;0.50;0.47;;;12.70;61.30;;;;;;5023085;28;20213;-54
2024/04/02 07:22:48;;;;;;;1.27;0.83;;;12.70;60.70;;;;;;5023811;28;20244;-56
2024/04/02 07:25:14;;;;;;;4.13;0.70;;;12.80;60.50;;;;;;5026064;28;21010;-58
2024/04/02 07:27:40;;;;;;;2.97;0.60;;;12.90;60.10;;;;;;5020750;28;20206;-58
2024/04/02 07:30:07;;;;;;;1.03;0.70;;;13.10;60.00;;;;;;5025315;28;20657;-59
2024/04/02 07:32:34;;;;;;;1.83;0.90;;;12.90;60.00;;;;;;5020140;28;20823;-56
2024/04/02 07:34:59;;;;;;;2.30;1.10;;;12.80;60.00;;;;;;5024393;28;20439;-55
2024/04/02 07:37:26;;;;;;;0.80;0.80;;;12.90;59.80;;;;;;5023872;28;20433;-57
2024/04/02 07:39:53;;;;;;;0.90;0.60;;;13.00;60.20;;;;;;5021595;28;20586;-58
2024/04/02 07:42:19;;;;;;;2.87;0.70;;;13.30;59.90;;;;;;5025981;28;20425;-58
2024/04/02 07:44:45;;;;;;;1.50;0.80;;;13.60;59.10;;;;;;5020316;28;20583;-58
2024/04/02 07:47:10;;;;;;;1.33;0.53;;;14.00;58.60;;;;;;5024706;28;20529;-58
2024/04/02 07:49:36;;;;;;;1.00;0.90;;;14.20;56.90;;;;;;5025000;28;20432;-57
2024/04/02 07:52:02;;;;;;;1.00;0.93;;;14.10;57.00;;;;;;5024772;28;20185;-56
2024/04/02 07:54:28;;;;;;;1.23;0.90;;;14.30;57.00;;;;;;5025411;28;20173;-59
2024/04/02 07:56:53;;;;;;;1.47;0.70;;;14.40;55.80;;;;;;5023109;28;20467;-55
2024/04/02 07:59:20;;;;;;;1.90;0.70;;;14.40;55.40;;;;;;5022521;28;20563;-57
2024/04/02 08:01:46;;;;;;;3.77;0.93;;;14.50;55.60;;;;;;5023512;28;20248;-57
2024/04/02 08:04:12;;;;;;;1.83;1.03;;;14.50;55.00;;;;;;5026509;28;20412;-56
2024/04/02 08:06:37;;;;;;;1.43;1.20;;;14.50;54.90;;;;;;5022243;28;20204;-57
2024/04/02 08:09:03;;;;;;;1.53;1.27;;;14.30;55.20;;;;;;5024538;28;20181;-55
2024/04/02 08:11:28;;;;;;;1.70;0.80;;;14.20;55.00;;;;;;5019955;28;20191;-56
2024/04/02 08:13:54;;;;;;;2.40;1.00;;;14.10;55.00;;;;;;5023666;28;20205;-57
2024/04/02 08:16:22;;;;;;;3.63;1.10;;;14.10;55.50;;;;;;5026947;28;20525;-54
2024/04/02 08:18:48;;;;;;;1.90;1.00;;;14.20;55.10;;;;;;5020824;28;20214;-58
2024/04/02 08:21:14;;;;;;;1.27;1.17;;;14.30;55.30;;;;;;5026528;28;20428;-57
2024/04/02 08:23:40;;;;;;;2.77;0.90;;;14.30;54.20;;;;;;5019273;28;20178;-57
2024/04/02 08:26:05;;;;;;;5.10;0.90;;;14.00;54.20;;;;;;5026234;28;20550;-57
2024/04/02 08:28:31;;;;;;;1.13;0.80;;;13.90;54.20;;;;;;5023818;28;20436;-57
2024/04/02 08:30:57;;;;;;;3.00;1.10;;;13.70;54.20;;;;;;5020863;28;20204;-57
2024/04/02 08:33:23;;;;;;;1.97;0.83;;;13.70;54.50;;;;;;5023737;28;20520;-58
2024/04/02 08:35:51;;;;;;;1.90;0.80;;;13.60;54.40;;;;;;5019435;28;20285;-57
2024/04/02 08:38:17;;;;;;;2.00;0.90;;;13.70;55.40;;;;;;5025936;28;20201;-58
2024/04/02 08:40:50;;;;;;;3.77;0.93;;;13.80;54.70;;;;;;5019520;28;20783;-57
2024/04/02 08:43:16;;;;;;;2.07;1.00;;;13.90;54.60;;;;;;5024914;28;20693;-57
2024/04/02 08:45:43;;;;;;;1.30;1.07;;;13.80;54.10;;;;;;5017304;28;20439;-56
2024/04/02 08:48:11;;;;;;;2.73;1.07;;;14.00;54.00;;;;;;5023498;28;20452;-52
2024/04/02 08:50:38;;;;;;;1.73;0.63;;;13.90;53.20;;;;;;5022772;28;20417;-58
2024/04/02 08:53:04;;;;;;;2.60;1.07;;;13.80;53.40;;;;;;5022547;28;20944;-57
2024/04/02 08:55:30;;;;;;;2.70;1.10;;;13.70;54.20;;;;;;5021498;28;20436;-56
2024/04/02 08:57:57;;;;;;;4.10;1.10;;;14.00;55.10;;;;;;5027752;28;20904;-57
2024/04/02 09:00:23;;;;;;;1.20;1.00;;;14.20;55.10;;;;;;5019984;28;20206;-56
2024/04/02 09:02:52;;;;;;;2.00;0.80;;;14.20;53.90;;;;;;5026843;28;20413;-57
2024/04/02 09:05:17;;;;;;;2.37;1.20;;;14.10;54.30;;;;;;5019474;28;20552;-57
2024/04/02 09:07:43;;;;;;;2.00;1.00;;;14.30;54.10;;;;;;5024630;28;20627;-58
2024/04/02 09:10:08;;;;;;;2.90;0.80;;;14.60;53.70;;;;;;5022520;28;20559;-55
2024/04/02 09:12:34;;;;;;;3.97;0.90;;;15.00;53.20;;;;;;5024851;28;20181;-56
2024/04/02 09:15:00;;;;;;;1.93;1.07;;;15.10;52.00;;;;;;5022286;28;20182;-59
2024/04/02 09:17:26;;;;;;;1.10;1.00;;;15.10;51.50;;;;;;5024468;28;20669;-57
2024/04/02 09:19:51;;;;;;;3.00;0.90;;;15.10;51.60;;;;;;5017911;28;20217;-58
2024/04/02 09:22:17;;;;;;;1.77;0.87;;;14.90;52.20;;;;;;5023240;28;20425;-59
2024/04/02 09:24:43;;;;;;;4.03;0.90;;;15.10;51.50;;;;;;5023744;28;20181;-57
2024/04/02 09:27:10;;;;;;;2.27;0.93;;;15.10;51.10;;;;;;5022531;28;20436;-57
2024/04/02 09:29:36;;;;;;;2.00;1.20;;;15.20;51.10;;;;;;5019944;28;20178;-59
2024/04/02 09:32:05;;;;;;;2.30;0.90;;;15.00;50.30;;;;;;5027761;28;20466;-59
2024/04/02 09:34:33;;;;;;;3.03;1.10;;;14.80;50.90;;;;;;5018840;28;20181;-56
2024/04/02 09:37:13;;;;;;;1.77;0.80;;;14.90;51.30;;;;;;5020266;28;20806;-58
2024/04/02 09:39:40;;;;;;;4.30;1.10;;;14.90;50.90;;;;;;5017130;28;20920;-54
2024/04/02 09:42:09;;;;;;;3.00;1.00;;;15.00;50.90;;;;;;5024972;28;20419;-59
2024/04/02 09:44:35;;;;;;;2.00;0.97;;;15.30;50.50;;;;;;5023458;28;20412;-57
2024/04/02 09:47:01;;;;;;;4.00;1.17;;;15.20;50.80;;;;;;5022806;28;20561;-59
2024/04/02 09:49:28;;;;;;;3.00;0.90;;;15.50;50.30;;;;;;5022341;28;20881;-57
2024/04/02 09:51:56;;;;;;;3.70;1.13;;;15.60;48.80;;;;;;5021129;28;20189;-58
2024/04/02 09:54:23;;;;;;;4.40;1.20;;;15.70;49.20;;;;;;5021420;28;20415;-58
2024/04/02 09:56:49;;;;;;;1.33;0.80;;;15.50;48.90;;;;;;5021278;28;20436;-59
2024/04/02 09:59:15;;;;;;;2.00;1.07;;;15.60;48.60;;;;;;5023139;28;20460;-56
2024/04/02 10:01:43;;;;;;;2.33;0.87;;;15.70;49.10;;;;;;5019051;28;20963;-58
2024/04/02 10:04:11;;;;;;;4.27;1.20;;;15.90;48.80;;;;;;5022675;28;20203;-57
2024/04/02 10:06:37;;;;;;;3.80;1.10;;;16.10;48.30;;;;;;5017031;28;21022;-54
2024/04/02 10:09:05;;;;;;;0.83;0.80;;;16.10;47.30;;;;;;5020654;28;20509;-58
2024/04/02 10:11:40;;;;;;;2.23;0.90;;;16.30;47.50;;;;;;5022665;28;20185;-58
2024/04/02 10:14:12;;;;;;;2.40;0.80;;;16.60;46.50;;;;;;5014573;28;20416;-56
2024/04/02 10:16:42;;;;;;;2.13;0.90;;;16.60;45.80;;;;;;5020069;28;20448;-58
2024/04/02 10:19:28;;;;;;;3.17;1.80;;;16.60;45.40;;;;;;5025308;28;20478;-57
2024/04/02 10:21:53;;;;;;;1.80;0.90;;;16.60;46.20;;;;;;5019823;28;20436;-57
2024/04/02 10:24:19;;;;;;;2.80;1.10;;;16.30;46.20;;;;;;5023372;28;20424;-57
2024/04/02 10:26:50;;;;;;;3.40;0.90;;;16.00;46.20;;;;;;5018456;28;20224;-58
2024/04/02 10:29:26;;;;;;;2.60;1.40;;;16.10;46.90;;;;;;5021364;28;20186;-56
2024/04/02 10:31:52;;;;;;;4.73;0.90;;;16.40;46.40;;;;;;5025029;28;20763;-56
2024/04/02 10:34:19;;;;;;;2.13;0.90;;;16.50;44.90;;;;;;5021612;28;20424;-57
2024/04/02 10:36:44;;;;;;;2.20;1.23;;;16.60;45.80;;;;;;5026092;28;20617;-56
2024/04/02 10:39:13;;;;;;;2.23;1.23;;;16.80;45.80;;;;;;5021713;28;20476;-58
2024/04/02 10:41:40;;;;;;;1.13;0.80;;;16.90;45.70;;;;;;5026820;28;20196;-58
2024/04/02 10:44:06;;;;;;;2.97;1.07;;;16.80;44.60;;;;;;5025499;28;20440;-57
2024/04/02 10:46:34;;;;;;;2.73;0.90;;;16.60;45.00;;;;;;5026962;28;20533;-58
2024/04/02 10:49:00;;;;;;;3.20;1.00;;;16.50;44.70;;;;;;5021913;28;20205;-58
2024/04/02 10:51:27;;;;;;;3.20;1.00;;;16.60;45.10;;;;;;5027031;28;20853;-57
2024/04/02 10:53:57;;;;;;;4.27;1.60;;;16.80;44.80;;;;;;5021580;28;20512;-57
2024/04/02 10:56:32;;;;;;;2.83;1.03;;;17.00;43.70;;;;;;5025832;28;20435;-58
2024/04/02 10:58:58;;;;;;;2.20;1.10;;;16.90;43.40;;;;;;5025943;28;20488;-58
2024/04/02 11:01:25;;;;;;;2.77;1.23;;;16.80;43.20;;;;;;5025456;28;20427;-56
2024/04/02 11:03:52;;;;;;;4.53;2.17;;;16.70;43.30;;;;;;5024249;28;20575;-59
2024/04/02 11:06:18;;;;;;;2.30;1.00;;;16.70;43.10;;;;;;5022926;28;20796;-56
2024/04/02 11:08:48;;;;;;;2.53;1.10;;;16.70;43.20;;;;;;5022525;28;20435;-56
2024/04/02 11:11:21;;;;;;;3.47;1.70;;;16.50;44.70;;;;;;5028180;28;20411;-57
2024/04/02 11:13:47;;;;;;;3.10;0.97;;;16.60;46.50;;;;;;5021906;28;20487;-58
2024/04/02 11:16:15;;;;;;;2.40;0.90;;;16.70;46.50;;;;;;5026419;28;20428;-57
2024/04/02 11:18:41;;;;;;;1.60;0.80;;;16.80;45.90;;;;;;5026647;28;20505;-57
2024/04/02 11:21:06;;;;;;;1.47;0.87;;;16.70;45.00;;;;;;5025038;28;20424;-58
2024/04/02 11:26:19;;;;;;;4.13;0.93;;;17.20;44.70;;;;;;5020815;28;20189;-58
2024/04/02 11:28:45;;;;;;;1.20;1.10;;;17.20;46.40;;;;;;5026001;28;20423;-58
2024/04/02 11:31:12;;;;;;;1.43;0.73;;;17.40;47.10;;;;;;5007427;28;20416;-57
2024/04/02 11:33:38;;;;;;;1.27;0.80;;;17.70;46.50;;;;;;5025989;28;20181;-58
2024/04/02 11:36:07;;;;;;;2.43;1.00;;;17.70;45.70;;;;;;5022096;28;20942;-58
2024/04/02 11:38:36;;;;;;;2.10;0.90;;;17.80;46.00;;;;;;5025016;28;20570;-54
2024/04/02 11:41:05;;;;;;;6.17;1.57;;;17.90;45.30;;;;;;5020888;28;20475;-57
2024/04/02 11:43:31;;;;;;;2.70;0.90;;;17.50;50.30;;;;;;5024420;28;20945;-56
2024/04/02 11:45:58;;;;;;;1.97;1.00;;;17.60;52.20;;;;;;5025522;28;20436;-59
2024/04/02 11:48:24;;;;;;;2.83;0.80;;;17.70;52.60;;;;;;5024224;28;20436;-57
2024/04/02 11:50:50;;;;;;;1.60;0.80;;;17.30;50.10;;;;;;5023552;28;20854;-59
2024/04/02 11:53:15;;;;;;;4.93;0.90;;;17.20;50.20;;;;;;5023287;28;20181;-57
2024/04/02 11:55:42;;;;;;;3.33;0.87;;;17.40;50.90;;;;;;5021768;28;20178;-57
2024/04/02 12:00:53;;;;;;;1.20;0.83;;;17.40;48.40;;;;;;5021070;28;20443;-59
2024/04/02 12:03:19;;;;;;;3.23;1.03;;;17.50;48.50;;;;;;5025813;28;20522;-57
2024/04/02 12:05:44;;;;;;;2.27;0.90;;;17.70;47.00;;;;;;5019750;28;20635;-58
2024/04/02 12:08:10;;;;;;;1.23;1.03;;;17.90;45.80;;;;;;5024959;28;20219;-58
2024/04/02 12:10:35;;;;;;;1.87;0.80;;;18.10;45.70;;;;;;5024135;28;20192;-57
2024/04/02 12:13:01;;;;;;;2.30;1.40;;;18.20;44.60;;;;;;5024166;28;20580;-56
2024/04/02 12:15:26;;;;;;;1.47;0.80;;;17.90;45.00;;;;;;5024447;28;20189;-58
2024/04/02 12:17:52;;;;;;;1.40;0.80;;;17.60;43.50;;;;;;5022076;28;20689;-57
2024/04/02 12:20:17;;;;;;;2.07;0.77;;;17.70;43.90;;;;;;5021447;28;20685;-56
2024/04/02 12:22:43;;;;;;;2.90;1.17;;;17.50;42.30;;;;;;5022792;28;20192;-57
2024/04/02 12:25:09;;;;;;;1.80;0.90;;;17.50;43.60;;;;;;5025583;28;20704;-56
2024/04/02 12:27:35;;;;;;;1.17;0.83;;;17.60;44.50;;;;;;5020534;28;20205;-58
2024/04/02 12:30:04;;;;;;;1.73;0.70;;;17.40;44.50;;;;;;5023310;28;20185;-55
2024/04/02 12:32:30;;;;;;;2.57;1.00;;;17.50;45.30;;;;;;5019138;28;20448;-58
2024/04/02 12:34:56;;;;;;;2.00;0.93;;;18.00;45.50;;;;;;5022550;28;20448;-57
2024/04/02 12:37:21;;;;;;;2.20;0.70;;;18.20;44.50;;;;;;5023530;28;20201;-56
2024/04/02 12:39:47;;;;;;;1.53;0.80;;;18.20;43.80;;;;;;5019276;28;20217;-58
2024/04/02 12:42:13;;;;;;;1.20;0.90;;;18.20;43.80;;;;;;5025723;28;20181;-59
2024/04/02 12:44:40;;;;;;;1.40;0.97;;;18.20;43.40;;;;;;5018326;28;20193;-56
2024/04/02 12:47:09;;;;;;;2.97;1.57;;;18.20;43.60;;;;;;5024509;28;20833;-58
2024/04/02 12:49:38;;;;;;;2.20;0.77;;;18.30;42.70;;;;;;5023157;28;20935;-58